Du har inga inställningar för hoppväder.nu

Hoppväder.nu

Senast uppdaterat 02:16

UTC-tid

2020-07-07 kl. 00:16


Sol och måne

Solen går upp 4:01 och går ner 22:42 (beräknade cirkatider)
Nästa fullmåne blir om 27 dagar (2020-08-03)

METAR

ESSV (Visby)
(1466 minuter sedan)
ESSV 062350Z AUTO 25018KT 9999 SCT020/// OVC070/// 14/11 Q1000=















TAF

ESSV (Visby)
(406 minuter sedan)
ESSV 061730Z 0618/0622 22020G30KT CAVOK PROB40 0618/0622 SCT030CB=





Kodnycklar till TAF och METAR






LHP

(Visby är område se33f i Delområde 1)

Prognos är inte uppdaterad






Preliminär prognos